Time;durP1;ratioP1;P1;durP2;ratioP2;P2;SDS_P1;SDS_P2;PMS_P1;PMS_P2;Temp;Humidity;BMP_temperature;BMP_pressure;BME280_temperature;BME280_humidity;BME280_pressure;Samples;Min_cycle;Max_cycle;Signal;HPM_P1;HPM_P2
2023/06/08 00:02:00;;;;;;;3.42;2.55;;;;;;;20.72;59.78;101744.41;20954197;28;20044;-68
2023/06/08 00:12:03;;;;;;;3.22;2.20;;;;;;;20.70;59.59;101740.97;20960312;28;20044;-68
2023/06/08 00:22:07;;;;;;;3.88;2.70;;;;;;;20.62;59.64;101719.16;20975695;28;20080;-68
2023/06/08 00:32:09;;;;;;;2.92;2.25;;;;;;;20.66;59.65;101728.69;20944846;28;20424;-68
2023/06/08 00:42:11;;;;;;;3.00;2.22;;;;;;;20.65;59.47;101726.16;20952737;28;20504;-68
2023/06/08 00:52:12;;;;;;;3.53;2.10;;;;;;;20.62;59.45;101724.56;20940183;28;20045;-68
2023/06/08 01:02:15;;;;;;;3.50;2.35;;;;;;;20.60;59.41;101712.16;20972956;28;20049;-67
2023/06/08 01:12:20;;;;;;;3.85;2.67;;;;;;;20.59;59.34;101714.00;20948426;28;20052;-68
2023/06/08 01:22:28;;;;;;;;;;;;;;;20.56;59.28;101714.28;20928963;28;20045;-68
2023/06/08 01:32:30;;;;;;;4.72;3.10;;;;;;;20.53;59.27;101717.25;20933346;28;19935;-68
2023/06/08 01:42:33;;;;;;;3.70;2.70;;;;;;;20.52;59.36;101712.84;20917912;28;20147;-68
2023/06/08 01:52:35;;;;;;;4.10;3.20;;;;;;;20.45;59.15;101703.53;20928922;28;20526;-67
2023/06/08 02:02:37;;;;;;;4.20;2.75;;;;;;;20.46;59.10;101707.97;20932765;28;20048;-67
2023/06/08 02:12:40;;;;;;;4.30;2.83;;;;;;;20.51;59.26;101719.22;20941421;28;20049;-68
2023/06/08 02:22:41;;;;;;;5.82;3.35;;;;;;;20.48;59.21;101728.47;20936551;28;20048;-67
2023/06/08 02:32:45;;;;;;;4.00;2.77;;;;;;;20.46;58.67;101718.78;20992083;28;20044;-67
2023/06/08 02:42:48;;;;;;;5.38;3.20;;;;;;;20.46;58.97;101722.31;20925051;28;20052;-67
2023/06/08 02:52:53;;;;;;;3.40;2.58;;;;;;;20.45;58.88;101708.97;20927984;28;20512;-68
2023/06/08 03:02:55;;;;;;;3.70;2.83;;;;;;;20.46;58.89;101711.50;20921702;28;20566;-68
2023/06/08 03:12:57;;;;;;;4.45;3.03;;;;;;;20.46;58.84;101689.03;20947809;28;20164;-68
2023/06/08 03:23:00;;;;;;;4.57;3.00;;;;;;;20.43;58.95;101674.78;20931461;28;20368;-68
2023/06/08 03:33:05;;;;;;;4.97;2.60;;;;;;;20.43;58.88;101684.72;20934011;28;20048;-68
2023/06/08 03:43:23;;;;;;;3.78;2.80;;;;;;;20.42;58.89;101685.72;20973744;28;20514;-68
2023/06/08 03:53:25;;;;;;;3.55;3.10;;;;;;;20.41;58.88;101695.69;20970093;28;20119;-68
2023/06/08 04:03:27;;;;;;;3.83;3.05;;;;;;;20.40;58.82;101696.69;20948301;28;20531;-68
2023/06/08 04:13:30;;;;;;;2.47;2.17;;;;;;;20.39;59.01;101676.06;20957632;28;20045;-67
2023/06/08 04:23:36;;;;;;;3.70;2.80;;;;;;;20.39;59.33;101684.16;20954857;28;20041;-68
2023/06/08 04:33:40;;;;;;;3.97;2.53;;;;;;;20.38;59.31;101668.94;20930910;28;20094;-67
2023/06/08 04:43:44;;;;;;;3.55;2.22;;;;;;;20.28;60.01;101668.00;20961695;28;20049;-68
2023/06/08 04:53:47;;;;;;;3.67;2.70;;;;;;;20.38;59.73;101676.16;20950095;28;20045;-68
2023/06/08 05:03:48;;;;;;;6.45;3.55;;;;;;;20.36;60.21;101676.31;20960815;28;20048;-68
2023/06/08 05:13:51;;;;;;;3.58;2.20;;;;;;;20.36;60.39;101672.75;20929097;28;20447;-68
2023/06/08 05:23:52;;;;;;;3.33;2.38;;;;;;;20.36;60.96;101670.91;20905281;28;20072;-68
2023/06/08 05:33:54;;;;;;;3.20;2.20;;;;;;;20.39;61.12;101667.94;20903965;28;20067;-67
2023/06/08 05:43:56;;;;;;;2.63;2.00;;;;;;;20.41;61.48;101665.97;20923503;28;20600;-69
2023/06/08 05:53:57;;;;;;;3.17;2.38;;;;;;;20.45;61.78;101652.16;20933895;28;20467;-71
2023/06/08 06:04:00;;;;;;;4.50;2.00;;;;;;;20.51;61.55;101646.19;20915275;28;20052;-67
2023/06/08 06:14:02;;;;;;;3.28;1.90;;;;;;;20.55;61.40;101645.81;20936736;28;20072;-69
2023/06/08 06:24:04;;;;;;;3.88;2.42;;;;;;;20.60;61.19;101645.38;20942872;28;20650;-69
2023/06/08 06:34:06;;;;;;;3.25;1.95;;;;;;;20.62;61.35;101647.97;21002513;28;20573;-69
2023/06/08 06:44:07;;;;;;;2.92;1.92;;;;;;;20.63;61.03;101664.03;21028733;28;20315;-69
2023/06/08 06:54:09;;;;;;;3.47;2.10;;;;;;;20.62;60.91;101656.91;21014541;28;20123;-69
2023/06/08 07:04:11;;;;;;;2.95;2.20;;;;;;;20.64;60.82;101654.09;21022606;28;20064;-69
2023/06/08 07:14:13;;;;;;;2.85;1.95;;;;;;;20.65;60.86;101639.56;20969598;28;20073;-69
2023/06/08 07:24:14;;;;;;;2.58;1.70;;;;;;;20.66;60.85;101642.13;20948754;28;20044;-69
2023/06/08 07:34:36;;;;;;;4.43;2.40;;;;;;;20.73;60.85;101653.28;20988760;28;20041;-70
2023/06/08 07:44:37;;;;;;;2.95;2.38;;;;;;;20.78;60.53;101650.16;20995089;28;20106;-70
2023/06/08 07:54:40;;;;;;;3.90;2.30;;;;;;;20.81;60.32;101649.91;21005514;28;20135;-69
2023/06/08 08:04:41;;;;;;;2.78;1.95;;;;;;;20.85;60.40;101651.34;20939955;28;20211;-69
2023/06/08 08:14:43;;;;;;;2.70;2.05;;;;;;;20.88;60.35;101653.78;20983994;28;20044;-69
2023/06/08 08:24:45;;;;;;;2.35;2.03;;;;;;;20.91;60.27;101645.38;20970117;28;20106;-69
2023/06/08 08:34:46;;;;;;;3.50;1.90;;;;;;;20.98;60.20;101646.53;20999362;28;20051;-67
2023/06/08 08:44:53;;;;;;;3.55;2.13;;;;;;;21.10;60.37;101651.81;21001284;28;20540;-67
2023/06/08 08:54:57;;;;;;;4.65;2.70;;;;;;;21.20;59.60;101655.41;20953707;28;20420;-67
2023/06/08 09:04:58;;;;;;;7.18;2.65;;;;;;;21.26;59.38;101643.16;21008770;28;20087;-69
2023/06/08 09:15:00;;;;;;;4.03;2.25;;;;;;;21.33;59.42;101646.19;20945344;28;20045;-71
2023/06/08 09:25:06;;;;;;;6.28;2.40;;;;;;;21.38;59.55;101643.91;20965691;28;20448;-71
2023/06/08 09:35:09;;;;;;;4.93;2.83;;;;;;;21.41;59.45;101627.34;20923081;28;20516;-71
2023/06/08 09:45:13;;;;;;;4.20;2.38;;;;;;;21.42;59.65;101632.63;20936292;28;20098;-71
2023/06/08 09:55:15;;;;;;;4.22;2.63;;;;;;;21.43;59.60;101630.78;20960017;28;20076;-71
2023/06/08 10:05:20;;;;;;;4.47;2.58;;;;;;;21.46;59.57;101632.38;20899043;28;20562;-71
2023/06/08 10:15:22;;;;;;;;;;;;;;;21.47;59.97;101629.50;20921576;28;20068;-68
2023/06/08 10:25:28;;;;;;;3.10;2.05;;;;;;;21.48;59.90;101614.94;20934466;28;20007;-71
2023/06/08 10:35:30;;;;;;;2.95;1.85;;;;;;;21.52;59.84;101607.41;20917945;28;20052;-70
2023/06/08 10:45:31;;;;;;;2.72;1.73;;;;;;;21.54;59.72;101591.88;20911299;28;20045;-71
2023/06/08 10:55:35;;;;;;;2.92;2.22;;;;;;;21.57;59.59;101588.88;20962980;28;20043;-70
2023/06/08 11:05:38;;;;;;;3.72;2.00;;;;;;;21.51;59.71;101581.31;20938987;28;20628;-71
2023/06/08 11:15:41;;;;;;;3.95;2.42;;;;;;;21.55;59.67;101572.72;20926439;28;20119;-71
2023/06/08 11:25:44;;;;;;;3.27;2.07;;;;;;;21.55;59.82;101567.31;20956543;28;20516;-71
2023/06/08 11:35:50;;;;;;;5.70;2.15;;;;;;;21.58;59.69;101549.94;20913051;28;20060;-71
2023/06/08 11:45:56;;;;;;;3.28;1.83;;;;;;;21.53;59.58;101534.09;20940648;28;20057;-71
2023/06/08 11:55:59;;;;;;;3.30;1.80;;;;;;;21.63;59.48;101546.78;20942448;28;20049;-71
2023/06/08 12:06:03;;;;;;;3.23;2.03;;;;;;;21.64;59.19;101543.97;20999701;28;20049;-71
2023/06/08 12:16:06;;;;;;;4.55;2.20;;;;;;;21.65;59.11;101529.41;20953913;28;20052;-71
2023/06/08 12:26:08;;;;;;;3.47;2.28;;;;;;;21.65;59.22;101523.13;20993039;28;20052;-71
2023/06/08 12:36:10;;;;;;;3.35;1.90;;;;;;;21.64;59.14;101511.44;21004615;28;20136;-71
2023/06/08 12:46:18;;;;;;;3.58;2.10;;;;;;;21.65;59.07;101512.28;20993852;28;20079;-71
2023/06/08 12:56:20;;;;;;;3.78;2.28;;;;;;;21.65;58.90;101501.44;20985830;28;20044;-71
2023/06/08 13:06:22;;;;;;;3.53;2.17;;;;;;;21.64;58.28;101491.59;20994293;28;20040;-71
2023/06/08 13:16:24;;;;;;;2.92;1.90;;;;;;;21.59;58.14;101489.31;20994410;28;20036;-71
2023/06/08 13:26:26;;;;;;;2.08;1.85;;;;;;;21.62;58.29;101493.59;20985450;28;20056;-71
2023/06/08 13:36:28;;;;;;;3.08;2.20;;;;;;;21.61;58.11;101486.44;21003202;28;20130;-71
2023/06/08 13:46:32;;;;;;;3.73;2.47;;;;;;;21.60;58.21;101480.19;20985781;28;20669;-71
2023/06/08 13:56:33;;;;;;;2.67;1.90;;;;;;;21.59;57.97;101464.94;20980633;28;20049;-70
2023/06/08 14:06:35;;;;;;;2.97;1.85;;;;;;;21.57;57.99;101454.25;20976306;28;20048;-71
2023/06/08 14:16:37;;;;;;;2.72;2.13;;;;;;;21.56;58.12;101444.41;20979060;28;20073;-71
2023/06/08 14:26:39;;;;;;;3.97;2.42;;;;;;;21.54;57.95;101443.69;20998332;28;20052;-71
2023/06/08 14:36:40;;;;;;;3.90;2.08;;;;;;;21.52;58.12;101428.63;20968526;28;20045;-70
2023/06/08 14:46:42;;;;;;;3.33;2.10;;;;;;;21.48;58.27;101416.38;20959108;28;20063;-70
2023/06/08 14:56:43;;;;;;;3.88;2.30;;;;;;;21.44;58.55;101411.25;20933296;28;20059;-69
2023/06/08 15:06:45;;;;;;;3.08;2.00;;;;;;;21.44;59.15;101411.25;20916448;28;20144;-70
2023/06/08 15:16:47;;;;;;;3.85;2.30;;;;;;;21.45;59.99;101414.78;20952420;28;20044;-70
2023/06/08 15:26:50;;;;;;;3.42;2.05;;;;;;;21.42;60.05;101402.38;21003761;28;20118;-70
2023/06/08 15:36:52;;;;;;;3.10;2.13;;;;;;;21.48;60.42;101394.69;20983633;28;20051;-71
2023/06/08 15:46:54;;;;;;;3.55;1.90;;;;;;;21.47;60.47;101380.28;20918451;28;20048;-70
2023/06/08 15:56:56;;;;;;;3.25;2.30;;;;;;;21.50;60.54;101374.56;20924470;28;20152;-71
2023/06/08 16:06:57;;;;;;;3.95;2.50;;;;;;;21.52;61.67;101372.56;20938598;28;20103;-70
2023/06/08 16:16:59;;;;;;;3.53;2.00;;;;;;;21.56;63.29;101368.53;20945384;28;20479;-70
2023/06/08 16:27:01;;;;;;;3.83;1.85;;;;;;;21.61;63.73;101375.38;20939795;28;20044;-69
2023/06/08 16:37:02;;;;;;;2.80;1.85;;;;;;;21.65;64.22;101374.09;20922365;28;20048;-70
2023/06/08 16:47:06;;;;;;;2.67;1.77;;;;;;;21.68;64.21;101376.53;20881261;28;21963;-68
2023/06/08 16:57:09;;;;;;;5.13;2.25;;;;;;;21.67;63.86;101381.09;20909126;28;20052;-68
2023/06/08 17:07:10;;;;;;;6.88;2.20;;;;;;;21.66;63.99;101373.13;20943340;28;20048;-84
2023/06/08 17:17:12;;;;;;;3.92;2.55;;;;;;;21.59;63.76;101376.38;20942135;28;20087;-78
2023/06/08 17:27:15;;;;;;;3.97;2.10;;;;;;;21.49;63.89;101362.03;20938049;28;20057;-65
2023/06/08 17:37:17;;;;;;;6.13;2.40;;;;;;;21.47;63.96;101353.19;20945300;28;20052;-65
2023/06/08 17:47:19;;;;;;;11.18;2.65;;;;;;;21.41;64.09;101361.91;20940478;28;20585;-64
2023/06/08 17:57:22;;;;;;;3.10;1.73;;;;;;;21.35;63.72;101343.56;20956711;28;20055;-64
2023/06/08 18:07:23;;;;;;;3.53;2.28;;;;;;;21.28;63.08;101355.00;20987733;28;20106;-64
2023/06/08 18:17:25;;;;;;;2.58;2.00;;;;;;;21.25;62.92;101360.72;20933913;28;20041;-64
2023/06/08 18:27:27;;;;;;;2.72;2.13;;;;;;;21.22;62.07;101369.13;20982003;28;20539;-64
2023/06/08 18:37:32;;;;;;;4.45;2.30;;;;;;;21.16;61.55;101366.97;20907456;28;20061;-64
2023/06/08 18:47:33;;;;;;;5.95;2.97;;;;;;;21.08;61.22;101364.16;20929016;28;20052;-64
2023/06/08 18:57:35;;;;;;;4.78;2.45;;;;;;;21.10;61.15;101384.69;20974570;28;20562;-64
2023/06/08 19:07:37;;;;;;;3.58;2.25;;;;;;;21.08;60.84;101396.63;20937769;28;20094;-64
2023/06/08 19:17:39;;;;;;;4.45;2.40;;;;;;;21.03;60.54;101394.38;20956620;28;20098;-64
2023/06/08 19:27:42;;;;;;;5.57;2.40;;;;;;;21.00;60.56;101398.22;20971249;28;20396;-64
2023/06/08 19:37:44;;;;;;;4.07;2.50;;;;;;;20.99;60.38;101415.47;20977328;28;20057;-64
2023/06/08 19:47:47;;;;;;;3.50;2.15;;;;;;;21.01;60.36;101423.47;20923817;28;20123;-64
2023/06/08 19:57:49;;;;;;;4.93;2.60;;;;;;;20.99;61.13;101437.13;20938301;28;20057;-64
2023/06/08 20:07:50;;;;;;;6.78;2.92;;;;;;;20.97;61.92;101444.53;20945430;28;20068;-64
2023/06/08 20:17:52;;;;;;;5.75;2.50;;;;;;;20.95;62.07;101451.94;20928972;28;20036;-64
2023/06/08 20:27:54;;;;;;;5.10;2.40;;;;;;;20.94;62.18;101469.19;20968892;28;20057;-64
2023/06/08 20:37:55;;;;;;;4.25;1.95;;;;;;;20.92;62.35;101463.06;20976238;28;20500;-64
2023/06/08 20:47:57;;;;;;;4.38;2.15;;;;;;;20.90;62.32;101446.09;20969823;28;20040;-64
2023/06/08 20:57:59;;;;;;;4.35;2.20;;;;;;;20.88;62.43;101471.59;20958187;28;20047;-64
2023/06/08 21:08:00;;;;;;;4.93;2.30;;;;;;;20.85;62.31;101472.75;20979580;28;20049;-64
2023/06/08 21:18:02;;;;;;;5.40;2.50;;;;;;;20.82;62.31;101478.44;20971511;28;20127;-64
2023/06/08 21:28:05;;;;;;;4.53;2.55;;;;;;;20.77;62.30;101475.25;20939924;28;20098;-64
2023/06/08 21:38:06;;;;;;;3.65;1.95;;;;;;;20.76;61.94;101473.53;20941826;28;20072;-64
2023/06/08 21:48:08;;;;;;;3.55;1.90;;;;;;;20.74;61.81;101473.69;20934330;28;20052;-64
2023/06/08 21:58:10;;;;;;;4.53;2.05;;;;;;;20.71;61.37;101480.22;20954929;28;20053;-64
2023/06/08 22:08:11;;;;;;;4.65;2.08;;;;;;;20.71;61.47;101480.22;20951787;28;20036;-64
2023/06/08 22:18:14;;;;;;;3.75;2.10;;;;;;;20.70;61.15;101481.22;20947179;28;20047;-64
2023/06/08 22:28:20;;;;;;;4.10;2.00;;;;;;;20.68;61.26;101480.50;20974913;28;20063;-64
2023/06/08 22:38:22;;;;;;;2.55;1.73;;;;;;;20.67;61.01;101469.84;20982325;28;20040;-64
2023/06/08 22:48:23;;;;;;;3.17;1.90;;;;;;;20.60;61.05;101450.63;20990843;28;20139;-64
2023/06/08 22:58:25;;;;;;;3.25;1.77;;;;;;;20.63;60.86;101463.84;21011820;28;20079;-64
2023/06/08 23:08:27;;;;;;;3.63;2.17;;;;;;;20.60;60.85;101464.13;21080478;28;20059;-64
2023/06/08 23:18:32;;;;;;;2.58;1.67;;;;;;;20.60;61.28;101461.44;21078749;28;20488;-64
2023/06/08 23:28:37;;;;;;;2.70;1.90;;;;;;;20.58;61.09;101453.47;21060937;28;20105;-64
2023/06/08 23:38:38;;;;;;;3.55;1.83;;;;;;;20.56;60.86;101451.88;21077506;28;20051;-64
2023/06/08 23:48:40;;;;;;;4.60;2.05;;;;;;;20.54;60.98;101452.03;21076935;28;20555;-64
2023/06/08 23:58:41;;;;;;;4.53;2.20;;;;;;;20.53;60.88;101449.47;21062039;28;20060;-64
